createdAt,value
2022-10-30T00:01:47.170Z,101449.83
2022-10-30T00:04:17.499Z,101453.22
2022-10-30T00:06:47.468Z,101452.60
2022-10-30T00:09:17.878Z,101453.89
2022-10-30T00:11:48.073Z,101451.49
2022-10-30T00:14:18.375Z,101452.34
2022-10-30T00:16:49.186Z,101457.82
2022-10-30T00:19:19.233Z,101458.27
2022-10-30T00:21:49.807Z,101457.78
2022-10-30T00:24:20.161Z,101458.01
2022-10-30T00:26:50.499Z,101456.50
2022-10-30T00:29:20.616Z,101462.37
2022-10-30T00:31:50.930Z,101464.80
2022-10-30T00:34:21.360Z,101464.20
2022-10-30T00:36:51.857Z,101462.90
2022-10-30T00:39:22.447Z,101460.25
2022-10-30T00:41:52.579Z,101462.16
2022-10-30T00:44:23.290Z,101466.79
2022-10-30T00:46:53.042Z,101466.28
2022-10-30T00:49:23.527Z,101468.23
2022-10-30T00:51:53.721Z,101469.99
2022-10-30T00:54:24.289Z,101469.11
2022-10-30T00:56:54.461Z,101467.84
2022-10-30T00:59:24.830Z,101468.24
2022-10-30T01:01:55.401Z,101465.82
2022-10-30T01:04:29.116Z,101467.77
2022-10-30T01:06:55.681Z,101469.80
2022-10-30T01:09:26.057Z,101472.52
2022-10-30T01:11:56.870Z,101470.89
2022-10-30T01:14:27.298Z,101468.43
2022-10-30T01:16:57.402Z,101469.51
2022-10-30T01:19:27.687Z,101472.06
2022-10-30T01:21:58.101Z,101472.48
2022-10-30T01:24:28.500Z,101470.58
2022-10-30T01:26:58.872Z,101473.05
2022-10-30T01:29:29.328Z,101473.41
2022-10-30T01:31:59.626Z,101475.43
2022-10-30T01:34:30.468Z,101473.30
2022-10-30T01:37:00.395Z,101474.47
2022-10-30T01:39:30.445Z,101476.20
2022-10-30T01:42:00.823Z,101472.58
2022-10-30T01:44:31.293Z,101472.76
2022-10-30T01:47:01.588Z,101479.11
2022-10-30T01:49:32.010Z,101484.19
2022-10-30T01:52:02.447Z,101479.87
2022-10-30T01:54:32.767Z,101485.24
2022-10-30T01:57:02.865Z,101485.31
2022-10-30T01:59:33.310Z,101484.03
2022-10-30T02:02:03.444Z,101483.14
2022-10-30T02:04:33.866Z,101483.82
2022-10-30T02:07:04.157Z,101486.79
2022-10-30T02:09:34.548Z,101484.89
2022-10-30T02:12:04.936Z,101489.48
2022-10-30T02:14:35.069Z,101488.92
2022-10-30T02:17:05.093Z,101487.57
2022-10-30T02:19:35.310Z,101485.55
2022-10-30T02:22:05.711Z,101489.36
2022-10-30T02:24:36.104Z,101492.80
2022-10-30T02:27:06.044Z,101492.53
2022-10-30T02:29:36.491Z,101491.18
2022-10-30T02:32:07.135Z,101491.88
2022-10-30T02:34:37.522Z,101491.33
2022-10-30T02:37:07.670Z,101490.97
2022-10-30T02:39:37.806Z,101495.55
2022-10-30T02:42:08.103Z,101492.74
2022-10-30T02:44:38.559Z,101492.84
2022-10-30T02:47:08.632Z,101494.52
2022-10-30T02:49:39.008Z,101496.51
2022-10-30T02:52:09.428Z,101495.80
2022-10-30T02:54:39.760Z,101496.61
2022-10-30T02:57:09.957Z,101492.97
2022-10-30T02:59:40.082Z,101486.32
2022-10-30T03:02:10.629Z,101481.95
2022-10-30T03:04:40.635Z,101488.32
2022-10-30T03:07:10.957Z,101484.91
2022-10-30T03:09:41.092Z,101481.17
2022-10-30T03:12:11.154Z,101480.38
2022-10-30T03:14:41.277Z,101484.13
2022-10-30T03:17:11.433Z,101488.86
2022-10-30T03:19:41.860Z,101485.78
2022-10-30T03:22:12.274Z,101484.03
2022-10-30T03:24:42.646Z,101489.55
2022-10-30T03:27:13.347Z,101491.50
2022-10-30T03:29:43.466Z,101490.94
2022-10-30T03:32:13.629Z,101494.00
2022-10-30T03:34:43.684Z,101490.11
2022-10-30T03:37:14.392Z,101487.45
2022-10-30T03:39:44.798Z,101484.28
2022-10-30T03:42:15.152Z,101484.70
2022-10-30T03:44:45.822Z,101485.33
2022-10-30T03:47:15.950Z,101476.34
2022-10-30T03:49:46.345Z,101476.16
2022-10-30T03:52:16.757Z,101474.49
2022-10-30T03:54:46.812Z,101474.33
2022-10-30T03:57:17.260Z,101479.40
2022-10-30T03:59:47.319Z,101473.50
2022-10-30T04:04:48.521Z,101478.78
2022-10-30T04:07:19.367Z,101478.84
2022-10-30T04:09:49.422Z,101485.04
2022-10-30T04:12:19.623Z,101487.18
2022-10-30T04:14:49.948Z,101496.95
2022-10-30T04:17:20.076Z,101495.01
2022-10-30T04:19:50.602Z,101492.92
2022-10-30T04:22:20.541Z,101492.36
2022-10-30T04:24:51.036Z,101498.70
2022-10-30T04:27:21.090Z,101501.88
2022-10-30T04:29:51.219Z,101495.14
2022-10-30T04:32:21.461Z,101501.06
2022-10-30T04:34:52.056Z,101497.88
2022-10-30T04:37:22.876Z,101503.03
2022-10-30T04:39:53.239Z,101504.21
2022-10-30T04:42:23.281Z,101506.59
2022-10-30T04:44:53.396Z,101508.31
2022-10-30T04:47:23.608Z,101508.49
2022-10-30T04:49:53.592Z,101509.12
2022-10-30T04:52:23.734Z,101508.28
2022-10-30T04:54:54.159Z,101510.45
2022-10-30T04:57:24.284Z,101509.69
2022-10-30T04:59:54.350Z,101507.55
2022-10-30T05:02:25.017Z,101506.95
2022-10-30T05:04:55.597Z,101501.54
2022-10-30T05:07:26.182Z,101500.56
2022-10-30T05:09:56.684Z,101500.52
2022-10-30T05:12:26.999Z,101501.63
2022-10-30T05:14:57.141Z,101501.15
2022-10-30T05:17:27.427Z,101499.11
2022-10-30T05:19:57.708Z,101501.27
2022-10-30T05:22:28.386Z,101493.66
2022-10-30T05:24:58.842Z,101491.58
2022-10-30T05:27:28.925Z,101490.00
2022-10-30T05:29:59.151Z,101491.41
2022-10-30T05:32:29.474Z,101488.99
2022-10-30T05:34:59.904Z,101492.22
2022-10-30T05:37:30.315Z,101497.71
2022-10-30T05:40:00.758Z,101498.67
2022-10-30T05:42:31.187Z,101497.78
2022-10-30T05:45:02.249Z,101497.89
2022-10-30T05:47:32.105Z,101499.46
2022-10-30T05:50:02.462Z,101502.28
2022-10-30T05:52:32.554Z,101506.63
2022-10-30T05:55:03.300Z,101512.15
2022-10-30T05:57:33.378Z,101508.33
2022-10-30T06:00:03.760Z,101510.20
2022-10-30T06:02:34.330Z,101512.98
2022-10-30T06:05:04.323Z,101504.70
2022-10-30T06:07:34.538Z,101504.82
2022-10-30T06:10:04.945Z,101500.82
2022-10-30T06:12:34.975Z,101497.14
2022-10-30T06:15:05.746Z,101494.65
2022-10-30T06:17:36.190Z,101497.81
2022-10-30T06:20:06.623Z,101500.01
2022-10-30T06:22:36.727Z,101503.60
2022-10-30T06:25:07.172Z,101507.38
2022-10-30T06:27:37.613Z,101508.79
2022-10-30T06:30:08.056Z,101513.27
2022-10-30T06:32:38.442Z,101520.87
2022-10-30T06:35:08.668Z,101523.39
2022-10-30T06:37:39.436Z,101521.92
2022-10-30T06:40:09.469Z,101523.96
2022-10-30T06:42:39.637Z,101527.49
2022-10-30T06:45:10.283Z,101528.34
2022-10-30T06:47:41.032Z,101527.77
2022-10-30T06:50:11.620Z,101527.43
2022-10-30T06:52:42.222Z,101525.08
2022-10-30T06:55:12.982Z,101525.17
2022-10-30T06:57:43.691Z,101521.25
2022-10-30T07:00:14.134Z,101522.07
2022-10-30T07:02:44.333Z,101521.85
2022-10-30T07:05:14.887Z,101515.59
2022-10-30T07:07:45.468Z,101515.93
2022-10-30T07:10:15.802Z,101518.68
2022-10-30T07:12:45.969Z,101525.35
2022-10-30T07:15:16.701Z,101527.98
2022-10-30T07:17:47.404Z,101531.02
2022-10-30T07:20:18.152Z,101535.22
2022-10-30T07:22:48.823Z,101535.46
2022-10-30T07:25:19.280Z,101539.97
2022-10-30T07:27:50.091Z,101543.72
2022-10-30T07:30:20.938Z,101545.29
2022-10-30T07:32:50.940Z,101545.59
2022-10-30T07:35:21.677Z,101549.99
2022-10-30T07:37:51.964Z,101552.46
2022-10-30T07:40:22.396Z,101551.70
2022-10-30T07:42:52.711Z,101544.92
2022-10-30T07:45:22.893Z,101546.33
2022-10-30T07:47:53.258Z,101551.11
2022-10-30T07:50:23.998Z,101555.86
2022-10-30T07:52:54.211Z,101552.80
2022-10-30T07:55:24.384Z,101562.16
2022-10-30T07:57:54.790Z,101562.17
2022-10-30T08:00:24.913Z,101563.09
2022-10-30T08:02:55.573Z,101561.46
2022-10-30T08:05:29.080Z,101558.03
2022-10-30T08:07:56.608Z,101555.52
2022-10-30T08:10:26.767Z,101554.27
2022-10-30T08:12:57.328Z,101554.34
2022-10-30T08:15:27.716Z,101557.68
2022-10-30T08:17:58.428Z,101550.57
2022-10-30T08:20:28.560Z,101546.59
2022-10-30T08:22:59.432Z,101544.02
2022-10-30T08:25:29.111Z,101539.03
2022-10-30T08:27:59.262Z,101538.64
2022-10-30T08:30:30.005Z,101534.08
2022-10-30T08:33:00.543Z,101531.97
2022-10-30T08:35:30.856Z,101535.07
2022-10-30T08:38:01.863Z,101535.32
2022-10-30T08:40:31.940Z,101533.94
2022-10-30T08:43:02.331Z,101541.05
2022-10-30T08:45:32.414Z,101542.43
2022-10-30T08:48:02.807Z,101536.96
2022-10-30T08:50:32.696Z,101533.12
2022-10-30T08:53:03.157Z,101527.34
2022-10-30T08:55:32.949Z,101523.47
2022-10-30T08:58:03.039Z,101524.08
2022-10-30T09:00:33.174Z,101522.81
2022-10-30T09:03:04.244Z,101520.41
2022-10-30T09:05:34.009Z,101519.91
2022-10-30T09:08:04.867Z,101519.69
2022-10-30T09:10:35.272Z,101518.25
2022-10-30T09:13:05.865Z,101520.20
2022-10-30T09:15:36.671Z,101519.43
2022-10-30T09:18:07.029Z,101520.95
2022-10-30T09:20:37.176Z,101521.97
2022-10-30T09:23:07.224Z,101520.82
2022-10-30T09:25:37.937Z,101521.95
2022-10-30T09:28:08.034Z,101521.93
2022-10-30T09:30:38.094Z,101520.48
2022-10-30T09:33:08.134Z,101518.73
2022-10-30T09:35:38.256Z,101523.34
2022-10-30T09:38:08.457Z,101522.92
2022-10-30T09:40:39.010Z,101527.23
2022-10-30T09:43:09.079Z,101531.47
2022-10-30T09:45:39.763Z,101535.96
2022-10-30T09:48:09.759Z,101534.26
2022-10-30T09:50:40.020Z,101537.69
2022-10-30T09:53:10.291Z,101541.34
2022-10-30T09:55:40.417Z,101540.11
2022-10-30T09:58:11.055Z,101536.65
2022-10-30T10:00:41.455Z,101533.85
2022-10-30T10:03:12.018Z,101528.19
2022-10-30T10:05:42.682Z,101528.01
2022-10-30T10:08:12.753Z,101528.85
2022-10-30T10:10:43.343Z,101529.65
2022-10-30T10:13:13.953Z,101524.18
2022-10-30T10:15:44.872Z,101517.16
2022-10-30T10:18:15.127Z,101514.26
2022-10-30T10:20:45.771Z,101515.36
2022-10-30T10:23:15.891Z,101517.28
2022-10-30T10:25:46.889Z,101521.08
2022-10-30T10:28:17.000Z,101522.27
2022-10-30T10:30:47.430Z,101517.20
2022-10-30T10:33:18.098Z,101511.79
2022-10-30T10:35:48.941Z,101509.94
2022-10-30T10:38:19.448Z,101516.11
2022-10-30T10:40:50.084Z,101521.88
2022-10-30T10:43:20.467Z,101526.24
2022-10-30T10:45:50.722Z,101530.61
2022-10-30T10:48:21.537Z,101528.87
2022-10-30T10:50:51.911Z,101525.29
2022-10-30T10:53:22.155Z,101518.94
2022-10-30T10:55:53.211Z,101515.51
2022-10-30T10:58:23.354Z,101515.25
2022-10-30T11:00:53.671Z,101519.98
2022-10-30T11:03:24.539Z,101523.49
2022-10-30T11:05:54.811Z,101524.57
2022-10-30T11:08:25.097Z,101525.36
2022-10-30T11:10:55.942Z,101523.45
2022-10-30T11:13:25.921Z,101520.54
2022-10-30T11:15:56.235Z,101517.09
2022-10-30T11:18:26.244Z,101518.28
2022-10-30T11:20:56.528Z,101515.10
2022-10-30T11:23:26.520Z,101511.06
2022-10-30T11:25:57.415Z,101503.25
2022-10-30T11:28:27.680Z,101498.43
2022-10-30T11:30:57.936Z,101496.06
2022-10-30T11:33:28.224Z,101497.22
2022-10-30T11:35:58.240Z,101500.36
2022-10-30T11:38:28.739Z,101503.31
2022-10-30T11:40:59.356Z,101509.59
2022-10-30T11:43:29.895Z,101513.60
2022-10-30T11:46:00.141Z,101513.92
2022-10-30T11:48:30.484Z,101515.74
2022-10-30T11:51:00.832Z,101516.41
2022-10-30T11:53:31.575Z,101510.77
2022-10-30T11:56:01.830Z,101509.99
2022-10-30T11:58:32.070Z,101508.09
2022-10-30T12:01:02.646Z,101507.42
2022-10-30T12:03:32.649Z,101505.73
2022-10-30T12:06:03.180Z,101502.42
2022-10-30T12:08:33.260Z,101501.00
2022-10-30T12:11:03.217Z,101503.00
2022-10-30T12:13:33.455Z,101499.45
2022-10-30T12:16:03.975Z,101501.12
2022-10-30T12:18:33.968Z,101502.50
2022-10-30T12:21:03.978Z,101508.29
2022-10-30T12:23:34.250Z,101501.20
2022-10-30T12:26:05.118Z,101492.30
2022-10-30T12:28:35.929Z,101484.22
2022-10-30T12:31:06.795Z,101486.10
2022-10-30T12:33:37.044Z,101487.85
2022-10-30T12:36:07.893Z,101483.02
2022-10-30T12:38:38.187Z,101476.24
2022-10-30T12:41:09.044Z,101476.26
2022-10-30T12:43:39.208Z,101474.83
2022-10-30T12:46:09.487Z,101469.19
2022-10-30T12:48:39.741Z,101461.84
2022-10-30T12:51:10.017Z,101460.04
2022-10-30T12:53:40.848Z,101457.18
2022-10-30T12:56:11.094Z,101457.49
2022-10-30T12:58:41.341Z,101458.89
2022-10-30T13:01:11.602Z,101462.27
2022-10-30T13:03:41.782Z,101460.84
2022-10-30T13:06:12.143Z,101464.14
2022-10-30T13:08:44.910Z,101466.69
2022-10-30T13:11:13.380Z,101462.59
2022-10-30T13:13:43.644Z,101464.88
2022-10-30T13:16:14.119Z,101462.69
2022-10-30T13:18:44.915Z,101456.27
2022-10-30T13:21:15.737Z,101458.07
2022-10-30T13:23:46.184Z,101461.28
2022-10-30T13:26:16.253Z,101460.04
2022-10-30T13:28:47.135Z,101462.01
2022-10-30T13:31:17.653Z,101457.49
2022-10-30T13:33:47.853Z,101456.04
2022-10-30T13:36:18.196Z,101455.54
2022-10-30T13:38:48.929Z,101456.00
2022-10-30T13:41:19.375Z,101450.00
2022-10-30T13:43:49.581Z,101448.50
2022-10-30T13:46:19.606Z,101448.64
2022-10-30T13:48:49.834Z,101445.95
2022-10-30T13:51:20.237Z,101447.14
2022-10-30T13:53:50.383Z,101442.70
2022-10-30T13:56:20.455Z,101441.18
2022-10-30T13:58:51.369Z,101441.97
2022-10-30T14:01:21.668Z,101444.16
2022-10-30T14:03:51.904Z,101448.06
2022-10-30T14:06:22.208Z,101447.39
2022-10-30T14:08:52.703Z,101449.57
2022-10-30T14:11:23.650Z,101450.01
2022-10-30T14:13:54.022Z,101446.35
2022-10-30T14:16:24.436Z,101445.39
2022-10-30T14:18:55.145Z,101442.96
2022-10-30T14:21:25.701Z,101441.94
2022-10-30T14:23:56.532Z,101439.02
2022-10-30T14:26:26.782Z,101440.82
2022-10-30T14:28:57.014Z,101443.28
2022-10-30T14:31:27.333Z,101442.52
2022-10-30T14:33:57.607Z,101443.68
2022-10-30T14:36:27.848Z,101450.78
2022-10-30T14:38:58.380Z,101448.18
2022-10-30T14:41:28.958Z,101448.87
2022-10-30T14:43:59.209Z,101444.07
2022-10-30T14:46:29.453Z,101441.41
2022-10-30T14:48:59.443Z,101438.03
2022-10-30T14:51:29.791Z,101433.33
2022-10-30T14:54:00.307Z,101436.30
2022-10-30T14:56:30.564Z,101436.18
2022-10-30T14:59:00.833Z,101434.69
2022-10-30T15:01:31.535Z,101431.27
2022-10-30T15:04:01.722Z,101430.55
2022-10-30T15:06:31.988Z,101430.49
2022-10-30T15:09:01.999Z,101427.07
2022-10-30T15:11:32.287Z,101424.95
2022-10-30T15:14:02.543Z,101426.76
2022-10-30T15:16:32.893Z,101429.18
2022-10-30T15:19:03.403Z,101431.65
2022-10-30T15:21:33.769Z,101431.64
2022-10-30T15:24:03.905Z,101426.73
2022-10-30T15:26:34.738Z,101426.40
2022-10-30T15:29:04.962Z,101426.52
2022-10-30T15:31:35.748Z,101426.12
2022-10-30T15:34:05.938Z,101427.22
2022-10-30T15:36:36.292Z,101426.23
2022-10-30T15:39:06.486Z,101427.45
2022-10-30T15:41:37.072Z,101430.59
2022-10-30T15:44:07.117Z,101428.84
2022-10-30T15:46:37.816Z,101425.49
2022-10-30T15:49:08.263Z,101427.48
2022-10-30T15:51:38.820Z,101427.73
2022-10-30T15:54:08.825Z,101428.85
2022-10-30T15:56:59.882Z,101431.83
2022-10-30T15:59:09.597Z,101430.79
2022-10-30T16:01:40.280Z,101432.90
2022-10-30T16:04:10.473Z,101436.07
2022-10-30T16:06:41.267Z,101440.25
2022-10-30T16:09:11.773Z,101443.93
2022-10-30T16:11:42.074Z,101445.16
2022-10-30T16:14:12.062Z,101444.55
2022-10-30T16:16:42.100Z,101448.73
2022-10-30T16:19:12.942Z,101454.28
2022-10-30T16:21:43.234Z,101459.03
2022-10-30T16:24:14.087Z,101462.16
2022-10-30T16:26:44.973Z,101465.86
2022-10-30T16:29:15.769Z,101466.63
2022-10-30T16:31:46.374Z,101469.85
2022-10-30T16:34:16.678Z,101473.35
2022-10-30T16:36:47.219Z,101469.60
2022-10-30T16:39:17.260Z,101468.74
2022-10-30T16:41:47.906Z,101468.44
2022-10-30T16:44:18.701Z,101468.71
2022-10-30T16:46:49.327Z,101461.05
2022-10-30T16:49:19.880Z,101457.88
2022-10-30T16:51:50.237Z,101465.82
2022-10-30T16:54:20.796Z,101472.26
2022-10-30T16:56:50.963Z,101477.70
2022-10-30T16:59:21.296Z,101476.76
2022-10-30T17:01:51.495Z,101477.66
2022-10-30T17:04:21.648Z,101481.22
2022-10-30T17:06:52.095Z,101483.65
2022-10-30T17:09:22.442Z,101477.65
2022-10-30T17:11:52.815Z,101475.56
2022-10-30T17:14:23.384Z,101481.42
2022-10-30T17:16:53.734Z,101484.76
2022-10-30T17:19:24.058Z,101484.66
2022-10-30T17:21:54.139Z,101487.57
2022-10-30T17:24:24.460Z,101491.52
2022-10-30T17:26:54.823Z,101492.21
2022-10-30T17:29:25.163Z,101497.42
2022-10-30T17:31:55.816Z,101501.03
2022-10-30T17:34:26.372Z,101504.50
2022-10-30T17:36:57.056Z,101508.60
2022-10-30T17:39:27.390Z,101516.48
2022-10-30T17:41:57.789Z,101526.20
2022-10-30T17:44:27.859Z,101528.79
2022-10-30T17:46:58.649Z,101527.76
2022-10-30T17:49:29.448Z,101530.45
2022-10-30T17:51:59.901Z,101539.08
2022-10-30T17:54:30.469Z,101536.76
2022-10-30T17:57:00.619Z,101545.08
2022-10-30T17:59:30.634Z,101549.88
2022-10-30T18:02:00.933Z,101562.17
2022-10-30T18:04:30.782Z,101568.37
2022-10-30T18:07:00.909Z,101570.97
2022-10-30T18:09:31.582Z,101574.96
2022-10-30T18:12:01.966Z,101577.20
2022-10-30T18:14:32.064Z,101577.64
2022-10-30T18:17:03.037Z,101579.24
2022-10-30T18:19:33.021Z,101585.25
2022-10-30T18:22:03.431Z,101583.19
2022-10-30T18:24:33.888Z,101586.46
2022-10-30T18:27:04.521Z,101585.20
2022-10-30T18:29:34.946Z,101587.20
2022-10-30T18:32:09.627Z,101589.55
2022-10-30T18:34:35.709Z,101591.10
2022-10-30T18:37:05.793Z,101591.97
2022-10-30T18:42:05.985Z,101587.36
2022-10-30T18:44:36.265Z,101587.30
2022-10-30T18:47:06.400Z,101589.51
2022-10-30T18:49:36.867Z,101592.31
2022-10-30T18:52:07.633Z,101587.85
2022-10-30T18:54:38.229Z,101587.86
2022-10-30T18:57:08.867Z,101587.99
2022-10-30T18:59:38.946Z,101588.04
2022-10-30T19:02:09.662Z,101592.18
2022-10-30T19:04:40.103Z,101592.00
2022-10-30T19:07:10.524Z,101592.44
2022-10-30T19:09:40.809Z,101589.64
2022-10-30T19:12:11.270Z,101586.95
2022-10-30T19:14:41.578Z,101584.63
2022-10-30T19:17:11.928Z,101580.33
2022-10-30T19:19:42.617Z,101574.03
2022-10-30T19:22:12.881Z,101574.50
2022-10-30T19:24:43.124Z,101583.49
2022-10-30T19:27:13.986Z,101574.35
2022-10-30T19:29:43.870Z,101575.28
2022-10-30T19:32:14.022Z,101581.38
2022-10-30T19:34:44.413Z,101592.16
2022-10-30T19:37:14.831Z,101586.99
2022-10-30T19:39:45.404Z,101581.57
2022-10-30T19:42:15.653Z,101576.96
2022-10-30T19:44:46.256Z,101582.25
2022-10-30T19:47:16.967Z,101593.67
2022-10-30T19:49:47.300Z,101607.75
2022-10-30T19:52:18.039Z,101619.43
2022-10-30T19:54:48.405Z,101626.47
2022-10-30T19:57:19.199Z,101640.20
2022-10-30T19:59:49.532Z,101640.41
2022-10-30T20:02:19.715Z,101645.63
2022-10-30T20:04:49.688Z,101649.47
2022-10-30T20:07:20.377Z,101658.25
2022-10-30T20:09:50.479Z,101662.94
2022-10-30T20:12:20.935Z,101661.96
2022-10-30T20:14:51.666Z,101661.72
2022-10-30T20:17:21.739Z,101665.88
2022-10-30T20:19:51.902Z,101672.13
2022-10-30T20:22:27.154Z,101672.12
2022-10-30T20:24:52.701Z,101668.98
2022-10-30T20:27:22.907Z,101672.22
2022-10-30T20:29:53.691Z,101669.35
2022-10-30T20:32:23.838Z,101674.08
2022-10-30T20:34:54.522Z,101682.90
2022-10-30T20:37:25.240Z,101688.37
2022-10-30T20:39:55.227Z,101686.88
2022-10-30T20:42:25.709Z,101682.84
2022-10-30T20:44:55.861Z,101683.55
2022-10-30T20:47:26.283Z,101688.33
2022-10-30T20:49:56.810Z,101688.69
2022-10-30T20:52:27.339Z,101694.73
2022-10-30T20:54:57.659Z,101700.00
2022-10-30T20:57:28.475Z,101698.66
2022-10-30T20:59:58.847Z,101701.78
2022-10-30T21:02:29.069Z,101699.56
2022-10-30T21:05:11.563Z,101702.21
2022-10-30T21:07:29.599Z,101700.21
2022-10-30T21:10:00.460Z,101701.74
2022-10-30T21:12:31.075Z,101702.18
2022-10-30T21:15:01.052Z,101710.07
2022-10-30T21:17:31.741Z,101716.31
2022-10-30T21:20:02.300Z,101724.06
2022-10-30T21:22:32.773Z,101732.81
2022-10-30T21:25:03.135Z,101736.86
2022-10-30T21:27:33.305Z,101736.62
2022-10-30T21:30:03.395Z,101742.38
2022-10-30T21:32:33.517Z,101741.98
2022-10-30T21:35:03.742Z,101747.71
2022-10-30T21:37:34.519Z,101755.75
2022-10-30T21:40:04.768Z,101754.98
2022-10-30T21:42:35.252Z,101754.48
2022-10-30T21:45:05.796Z,101763.16
2022-10-30T21:47:36.531Z,101767.16
2022-10-30T21:50:11.650Z,101767.78
2022-10-30T21:52:37.283Z,101771.00
2022-10-30T21:55:07.786Z,101764.91
2022-10-30T21:57:38.548Z,101761.83
2022-10-30T22:00:08.897Z,101763.01
2022-10-30T22:02:39.351Z,101767.88
2022-10-30T22:05:09.576Z,101767.17
2022-10-30T22:07:39.953Z,101763.46
2022-10-30T22:10:10.039Z,101761.58
2022-10-30T22:12:40.782Z,101759.23
2022-10-30T22:15:11.402Z,101759.64
2022-10-30T22:17:41.505Z,101758.24
2022-10-30T22:20:11.506Z,101752.87
2022-10-30T22:22:41.945Z,101754.65
2022-10-30T22:25:12.066Z,101761.58
2022-10-30T22:27:42.733Z,101761.92
2022-10-30T22:30:12.847Z,101765.42
2022-10-30T22:32:42.944Z,101764.82
2022-10-30T22:35:13.054Z,101766.60
2022-10-30T22:37:43.853Z,101770.60
2022-10-30T22:40:14.530Z,101776.21
2022-10-30T22:42:44.622Z,101768.14
2022-10-30T22:45:14.799Z,101762.26
2022-10-30T22:47:44.894Z,101763.15
2022-10-30T22:50:14.963Z,101770.97
2022-10-30T22:52:45.138Z,101780.05
2022-10-30T22:55:15.191Z,101777.96
2022-10-30T22:57:45.319Z,101782.65
2022-10-30T23:00:19.157Z,101783.05
2022-10-30T23:02:46.098Z,101782.25
2022-10-30T23:05:16.289Z,101781.04
2022-10-30T23:07:46.316Z,101784.51
2022-10-30T23:10:16.693Z,101785.35
2022-10-30T23:12:47.449Z,101781.92
2022-10-30T23:15:17.892Z,101784.82
2022-10-30T23:17:47.912Z,101785.85
2022-10-30T23:20:18.311Z,101791.98
2022-10-30T23:22:48.879Z,101792.15
2022-10-30T23:25:19.565Z,101798.79
2022-10-30T23:27:49.652Z,101803.43
2022-10-30T23:30:19.951Z,101802.56
2022-10-30T23:32:50.115Z,101806.09
2022-10-30T23:35:20.151Z,101808.35
2022-10-30T23:37:50.325Z,101809.38
2022-10-30T23:40:20.655Z,101812.37
2022-10-30T23:42:51.374Z,101818.22
2022-10-30T23:45:22.060Z,101819.40
2022-10-30T23:47:52.357Z,101816.80
2022-10-30T23:50:23.164Z,101818.43
2022-10-30T23:52:53.553Z,101821.83
2022-10-30T23:55:24.274Z,101822.02
2022-10-30T23:57:54.446Z,101825.78
